Time;durP1;ratioP1;P1;durP2;ratioP2;P2;SDS_P1;SDS_P2;PMS_P1;PMS_P2;Temp;Humidity;BMP_temperature;BMP_pressure;BME280_temperature;BME280_humidity;BME280_pressure;Samples;Min_cycle;Max_cycle;Signal;HPM_P1;HPM_P2
2022/01/19 00:00:52;;;;;;;;;;;;;;;-1.09;100.00;103063.81;2082806;28;19913;-64
2022/01/19 00:01:52;;;;;;;;;;;;;;;-1.11;100.00;103057.78;2091056;28;19971;-64
2022/01/19 00:02:52;;;;;;;;;;;;;;;-1.10;100.00;103056.97;2091808;28;19912;-64
2022/01/19 00:03:52;;;;;;;;;;;;;;;-1.09;100.00;103048.44;2090962;28;20285;-64
2022/01/19 00:04:53;;;;;;;;;;;;;;;-1.10;100.00;103046.69;2091083;28;20003;-64
2022/01/19 00:05:53;;;;;;;;;;;;;;;-1.14;100.00;103044.81;2091758;28;19916;-64
2022/01/19 00:06:53;;;;;;;;;;;;;;;-1.21;100.00;103043.69;2090940;28;20022;-64
2022/01/19 00:07:53;;;;;;;;;;;;;;;-1.21;100.00;103037.69;2082716;28;20042;-64
2022/01/19 00:08:53;;;;;;;;;;;;;;;-1.26;100.00;103037.50;2090932;28;19909;-65
2022/01/19 00:09:54;;;;;;;;;;;;;;;-1.30;100.00;103043.31;2091655;28;19963;-65
2022/01/19 00:10:54;;;;;;;;;;;;;;;-1.34;100.00;103043.97;2091639;28;20358;-64
2022/01/19 00:11:54;;;;;;;;;;;;;;;-1.35;100.00;103043.13;2091613;28;19916;-64
2022/01/19 00:12:55;;;;;;;;;;;;;;;-1.36;100.00;103043.03;2091537;28;19913;-65
2022/01/19 00:13:55;;;;;;;;;;;;;;;-1.39;100.00;103043.78;2091511;28;19908;-64
2022/01/19 00:14:55;;;;;;;;;;;;;;;-1.41;100.00;103042.84;2091567;28;19963;-65
2022/01/19 00:15:56;;;;;;;;;;;;;;;-1.38;100.00;103040.41;2090779;28;19920;-65
2022/01/19 00:16:56;;;;;;;;;;;;;;;-1.36;100.00;103038.81;2082629;28;19909;-65
2022/01/19 00:17:58;;;;;;;;;;;;;;;-1.31;100.00;103050.13;2090927;28;19909;-65
2022/01/19 00:18:58;;;;;;;;;;;;;;;-1.25;100.00;103046.06;2091542;28;19960;-65
2022/01/19 00:19:59;;;;;;;;;;;;;;;-1.21;100.00;103045.38;2091631;28;19909;-65
2022/01/19 00:20:59;;;;;;;;;;;;;;;-1.21;100.00;103042.81;2091426;28;20278;-65
2022/01/19 00:21:59;;;;;;;;;;;;;;;-1.24;100.00;103040.09;2091489;28;19912;-65
2022/01/19 00:23:00;;;;;;;;;;;;;;;-1.27;100.00;103037.44;2091581;28;19944;-65
2022/01/19 00:24:00;;;;;;;;;;;;;;;-1.25;100.00;103035.81;2091532;28;19920;-65
2022/01/19 00:25:00;;;;;;;;;;;;;;;-1.26;100.00;103034.94;2091549;28;20350;-64
2022/01/19 00:26:01;;;;;;;;;;;;;;;-1.28;100.00;103034.00;2091510;28;19912;-65
2022/01/19 00:27:01;;;;;;;;;;;;;;;-1.28;100.00;103036.56;2091524;28;19934;-65
2022/01/19 00:28:01;;;;;;;;;;;;;;;-1.30;100.00;103031.38;2090626;28;19917;-65
2022/01/19 00:29:02;;;;;;;;;;;;;;;-1.35;100.00;103020.06;2090795;28;19916;-65
2022/01/19 00:30:02;;;;;;;;;;;;;;;-1.40;100.00;103012.97;2091461;28;20303;-65
2022/01/19 00:31:03;;;;;;;;;;;;;;;-1.44;100.00;103004.28;2090778;28;19947;-66
2022/01/19 00:32:03;;;;;;;;;;;;;;;-1.46;100.00;103000.78;2090837;28;19916;-65
2022/01/19 00:33:03;;;;;;;;;;;;;;;-1.46;100.00;102990.53;2090724;28;19915;-65
2022/01/19 00:34:03;;;;;;;;;;;;;;;-1.45;100.00;102984.59;2090732;28;19948;-65
2022/01/19 00:35:04;;;;;;;;;;;;;;;-1.40;100.00;102975.44;2090774;28;19952;-65
2022/01/19 00:36:05;;;;;;;;;;;;;;;-1.43;100.00;102970.19;2090733;28;20325;-65
2022/01/19 00:37:05;;;;;;;;;;;;;;;-1.46;100.00;102970.94;2091456;28;19909;-65
2022/01/19 00:38:06;;;;;;;;;;;;;;;-1.46;100.00;102959.81;2091290;28;19913;-65
2022/01/19 00:39:06;;;;;;;;;;;;;;;-1.45;100.00;102951.31;2091256;28;20339;-65
2022/01/19 00:40:08;;;;;;;;;;;;;;;-1.49;100.00;102949.44;2090613;28;19916;-65
2022/01/19 00:41:10;;;;;;;;;;;;;;;-1.56;100.00;102943.19;2090773;28;20070;-65
2022/01/19 00:42:10;;;;;;;;;;;;;;;-1.63;100.00;102934.38;2091337;28;19999;-65
2022/01/19 00:43:11;;;;;;;;;;;;;;;-1.66;100.00;102931.66;2091339;28;19908;-65
2022/01/19 00:44:11;;;;;;;;;;;;;;;-1.65;100.00;102935.97;2091367;28;19916;-65
2022/01/19 00:45:12;;;;;;;;;;;;;;;-1.66;100.00;102921.44;2090556;28;19959;-65
2022/01/19 00:46:12;;;;;;;;;;;;;;;-1.66;100.00;102928.22;2090713;28;20322;-65
2022/01/19 00:47:14;;;;;;;;;;;;;;;-1.67;100.00;102929.94;2091321;28;19913;-64
2022/01/19 00:48:14;;;;;;;;;;;;;;;-1.67;100.00;102929.94;2091315;28;20046;-65
2022/01/19 00:49:14;;;;;;;;;;;;;;;-1.70;100.00;102940.91;2091287;28;19958;-65
2022/01/19 00:50:16;;;;;;;;;;;;;;;-1.69;100.00;102942.66;2091336;28;19912;-65
2022/01/19 00:51:16;;;;;;;;;;;;;;;-1.66;100.00;102946.16;2091398;28;20003;-64
2022/01/19 00:52:17;;;;;;;;;;;;;;;-1.63;100.00;102948.84;2090699;28;20378;-64
2022/01/19 00:53:17;;;;;;;;;;;;;;;-1.60;100.00;102962.66;2090264;28;19909;-64
2022/01/19 00:54:17;;;;;;;;;;;;;;;-1.54;100.00;102963.72;2089788;28;19913;-64
2022/01/19 00:55:18;;;;;;;;;;;;;;;-1.51;100.00;102961.31;2090736;28;20021;-64
2022/01/19 00:56:18;;;;;;;;;;;;;;;-1.49;100.00;102959.66;2094054;28;19924;-64
2022/01/19 00:57:18;;;;;;;;;;;;;;;-1.49;100.00;102959.66;2090627;28;20263;-64
2022/01/19 00:58:18;;;;;;;;;;;;;;;-1.48;100.00;102959.75;2090723;28;20448;-65
2022/01/19 00:59:19;;;;;;;;;;;;;;;-1.49;100.00;102975.03;2091328;28;19916;-65
2022/01/19 01:00:20;;;;;;;;;;;;;;;-1.52;100.00;102969.78;2090639;28;19978;-65
2022/01/19 01:01:20;;;;;;;;;;;;;;;-1.59;100.00;102969.53;2090755;28;20267;-65
2022/01/19 01:02:21;;;;;;;;;;;;;;;-1.60;100.00;102969.47;2091192;28;19959;-64
2022/01/19 01:03:21;;;;;;;;;;;;;;;-1.63;100.00;102967.66;2091264;28;19966;-64
2022/01/19 01:04:21;;;;;;;;;;;;;;;-1.68;100.00;102964.00;2091259;28;19913;-64
2022/01/19 01:05:22;;;;;;;;;;;;;;;-1.73;100.00;102958.72;2091294;28;19919;-65
2022/01/19 01:06:22;;;;;;;;;;;;;;;-1.77;100.00;102961.06;2091371;28;19908;-64
2022/01/19 01:07:22;;;;;;;;;;;;;;;-1.79;100.00;102955.00;2091244;28;20380;-64
2022/01/19 01:08:22;;;;;;;;;;;;;;;-1.81;100.00;102954.94;2091236;28;19908;-64
2022/01/19 01:09:22;;;;;;;;;;;;;;;-1.86;100.00;102959.84;2091098;28;19909;-64
2022/01/19 01:10:23;;;;;;;;;;;;;;;-1.87;100.00;102963.22;2091196;28;20389;-64
2022/01/19 01:11:29;;;;;;;;;;;;;;;-1.87;100.00;102945.31;2090510;28;19915;-64
2022/01/19 01:12:43;;;;;;;;;;;;;;;-1.88;100.00;102953.78;2082999;28;20231;-64
2022/01/19 01:16:30;;;;;;;;;;;;;;;-1.95;100.00;102949.22;2091154;28;20007;-64
2022/01/19 01:18:49;;;;;;;;;;;;;;;-1.87;100.00;102927.41;2093995;28;19920;-63
2022/01/19 01:19:49;;;;;;;;;;;;;;;-1.82;100.00;102928.47;2091256;28;19916;-64
2022/01/19 01:20:51;;;;;;;;;;;;;;;-1.79;100.00;102919.16;2091163;28;20357;-64
2022/01/19 01:21:51;;;;;;;;;;;;;;;-1.82;100.00;102918.22;2091065;28;19908;-64
2022/01/19 01:22:51;;;;;;;;;;;;;;;-1.87;100.00;102914.59;2090392;28;20247;-63
2022/01/19 01:23:51;;;;;;;;;;;;;;;-1.88;100.00;102909.41;2090611;28;19908;-64
2022/01/19 01:24:52;;;;;;;;;;;;;;;-1.89;100.00;102916.19;2091170;28;19931;-64
2022/01/19 01:25:52;;;;;;;;;;;;;;;-1.79;100.00;102916.63;2090313;28;20382;-64
2022/01/19 01:26:52;;;;;;;;;;;;;;;-1.71;100.00;102912.69;2090435;28;19909;-64
2022/01/19 01:27:52;;;;;;;;;;;;;;;-1.69;100.00;102908.50;2090919;28;19924;-64
2022/01/19 01:28:53;;;;;;;;;;;;;;;-1.71;100.00;102900.75;2090997;28;20373;-64
2022/01/19 01:29:53;;;;;;;;;;;;;;;-1.71;100.00;102903.31;2091077;28;20046;-64
2022/01/19 01:30:53;;;;;;;;;;;;;;;-1.76;100.00;102896.22;2090300;28;20362;-64
2022/01/19 01:31:54;;;;;;;;;;;;;;;-1.83;100.00;102890.88;2082123;28;19952;-64
2022/01/19 01:32:54;;;;;;;;;;;;;;;-1.87;100.00;102891.56;2090359;28;19912;-64
2022/01/19 01:33:54;;;;;;;;;;;;;;;-1.91;100.00;102884.56;2090889;28;19966;-64
2022/01/19 01:34:54;;;;;;;;;;;;;;;-1.93;100.00;102881.03;2090283;28;19979;-64
2022/01/19 01:35:54;;;;;;;;;;;;;;;-1.96;100.00;102871.56;2082001;28;20009;-64
2022/01/19 01:36:55;;;;;;;;;;;;;;;-1.97;100.00;102868.94;2090323;28;20398;-63
2022/01/19 01:37:55;;;;;;;;;;;;;;;-1.93;100.00;102863.13;2090159;28;19931;-63
2022/01/19 01:38:55;;;;;;;;;;;;;;;-1.94;100.00;102853.72;2090306;28;19944;-63
2022/01/19 01:39:56;;;;;;;;;;;;;;;-1.97;100.00;102853.56;2090534;28;20267;-64
2022/01/19 01:40:56;;;;;;;;;;;;;;;-1.98;100.00;102846.72;2090921;28;19958;-63
2022/01/19 01:41:56;;;;;;;;;;;;;;;-1.99;100.00;102837.28;2090205;28;19915;-63
2022/01/19 01:42:57;;;;;;;;;;;;;;;-1.98;100.00;102836.47;2090348;28;19909;-63
2022/01/19 01:43:57;;;;;;;;;;;;;;;-1.99;100.00;102835.59;2090897;28;19908;-63
2022/01/19 01:45:00;;;;;;;;;;;;;;;-1.96;100.00;102833.16;2090896;28;19909;-64
2022/01/19 01:46:06;;;;;;;;;;;;;;;-1.92;100.00;102831.59;2090065;28;20328;-63
2022/01/19 01:47:06;;;;;;;;;;;;;;;-1.91;100.00;102822.25;2090354;28;19912;-63
2022/01/19 01:48:14;;;;;;;;;;;;;;;-1.89;100.00;102831.72;2090214;28;19913;-63
2022/01/19 01:49:22;;;;;;;;;;;;;;;-1.86;100.00;102831.88;2090376;28;19908;-64
2022/01/19 01:54:18;;;;;;;;;;;;;;;-1.85;100.00;102827.63;2093593;28;20099;-64
2022/01/19 01:55:20;;;;;;;;;;;;;;;-1.87;100.00;102834.34;2090827;28;20010;-64
2022/01/19 01:56:20;;;;;;;;;;;;;;;-1.90;100.00;102829.09;2093583;28;19944;-64
2022/01/19 01:57:20;;;;;;;;;;;;;;;-1.92;100.00;102825.63;2090053;28;19915;-64
2022/01/19 01:58:21;;;;;;;;;;;;;;;-1.92;100.00;102831.59;2090120;28;19909;-64
2022/01/19 01:59:21;;;;;;;;;;;;;;;-1.92;100.00;102826.47;2090706;28;20388;-64
2022/01/19 02:00:23;;;;;;;;;;;;;;;-1.89;100.00;102833.44;2090701;28;19909;-64
2022/01/19 02:01:23;;;;;;;;;;;;;;;-1.88;100.00;102832.63;2090723;28;19996;-63
2022/01/19 02:02:23;;;;;;;;;;;;;;;-1.83;100.00;102824.31;2090591;28;19908;-63
2022/01/19 02:03:24;;;;;;;;;;;;;;;-1.74;100.00;102836.59;2090762;28;20016;-64
2022/01/19 02:04:25;;;;;;;;;;;;;;;-1.73;100.00;102832.38;2090741;28;19920;-64
2022/01/19 02:05:27;;;;;;;;;;;;;;;-1.70;100.00;102817.13;2090340;28;19908;-64
2022/01/19 02:06:34;;;;;;;;;;;;;;;-1.70;100.00;102817.13;2090758;28;19958;-65
2022/01/19 02:08:56;;;;;;;;;;;;;;;-1.64;100.00;102817.38;2093091;28;19908;-63
2022/01/19 02:10:00;;;;;;;;;;;;;;;-1.63;100.00;102819.13;2090629;28;19909;-63
2022/01/19 02:11:30;;;;;;;;;;;;;;;-1.64;100.00;102822.50;2090719;28;19908;-63
2022/01/19 02:21:45;;;;;;;;;;;;;;;-2.07;100.00;102796.00;2093553;28;19908;-63
2022/01/19 02:22:45;;;;;;;;;;;;;;;-2.04;100.00;102795.25;2089966;28;20403;-64
2022/01/19 02:23:51;;;;;;;;;;;;;;;-2.02;100.00;102791.09;2090060;28;19912;-63
2022/01/19 02:24:51;;;;;;;;;;;;;;;-1.97;100.00;102797.28;2089971;28;19912;-63
2022/01/19 02:25:53;;;;;;;;;;;;;;;-1.96;100.00;102796.44;2089957;28;20410;-63
2022/01/19 02:31:36;;;;;;;;;;;;;;;-1.89;100.00;102779.69;2090683;28;19915;-64
2022/01/19 02:40:58;;;;;;;;;;;;;;;-1.93;100.00;102737.72;2090645;28;19909;-64
2022/01/19 02:41:59;;;;;;;;;;;;;;;-1.94;100.00;102730.84;2090525;28;20313;-63
2022/01/19 02:43:59;;;;;;;;;;;;;;;-2.00;100.00;102715.25;2092726;28;19931;-63
2022/01/19 02:49:39;;;;;;;;;;;;;;;-2.17;100.00;102710.31;2090499;28;19916;-64
2022/01/19 02:50:39;;;;;;;;;;;;;;;-2.17;100.00;102715.44;2090456;28;19920;-63
2022/01/19 02:51:39;;;;;;;;;;;;;;;-2.13;100.00;102714.75;2090400;28;20007;-64
2022/01/19 02:52:39;;;;;;;;;;;;;;;-2.08;100.00;102713.25;2089752;28;20005;-64
2022/01/19 02:53:39;;;;;;;;;;;;;;;-2.08;100.00;102710.69;2089812;28;19921;-63
2022/01/19 02:54:40;;;;;;;;;;;;;;;-2.13;100.00;102714.75;2090434;28;19909;-63
2022/01/19 02:55:40;;;;;;;;;;;;;;;-2.18;100.00;102706.03;2090291;28;19964;-63
2022/01/19 02:56:43;;;;;;;;;;;;;;;-2.12;100.00;102719.06;2090442;28;19909;-64
2022/01/19 02:57:46;;;;;;;;;;;;;;;-2.04;100.00;102714.25;2090344;28;20001;-64
2022/01/19 02:58:47;;;;;;;;;;;;;;;-1.97;100.00;102715.38;2090293;28;19954;-64
2022/01/19 03:08:53;;;;;;;;;;;;;;;-2.01;100.00;102693.03;2093311;28;19917;-64
2022/01/19 03:09:54;;;;;;;;;;;;;;;-2.05;100.00;102686.06;2089778;28;19960;-64
2022/01/19 03:10:54;;;;;;;;;;;;;;;-2.08;100.00;102682.53;2089723;28;19948;-63
2022/01/19 03:11:54;;;;;;;;;;;;;;;-2.05;100.00;102680.94;2090541;28;19915;-64
2022/01/19 03:12:55;;;;;;;;;;;;;;;-2.09;100.00;102680.81;2090359;28;19936;-64
2022/01/19 03:13:55;;;;;;;;;;;;;;;-2.11;100.00;102682.44;2090308;28;19908;-64
2022/01/19 03:14:56;;;;;;;;;;;;;;;-2.13;100.00;102673.81;2090400;28;20050;-63
2022/01/19 03:15:56;;;;;;;;;;;;;;;-2.15;100.00;102680.56;2090348;28;19923;-64
2022/01/19 03:16:56;;;;;;;;;;;;;;;-2.15;100.00;102680.56;2090504;28;19909;-64
2022/01/19 03:17:59;;;;;;;;;;;;;;;-2.13;100.00;102673.81;2092059;28;20341;-64
2022/01/19 03:18:59;;;;;;;;;;;;;;;-2.12;100.00;102678.13;2092131;28;19913;-64
2022/01/19 03:20:00;;;;;;;;;;;;;;;-2.12;100.00;102680.69;2092083;28;19977;-64
2022/01/19 03:21:00;;;;;;;;;;;;;;;-2.17;100.00;102677.06;2091381;28;19908;-64
2022/01/19 03:22:00;;;;;;;;;;;;;;;-2.22;100.00;102678.56;2083126;28;20262;-64
2022/01/19 03:23:04;;;;;;;;;;;;;;;-2.25;100.00;102665.66;2091299;28;19912;-64
2022/01/19 03:24:05;;;;;;;;;;;;;;;-2.23;100.00;102671.69;2092042;28;20353;-63
2022/01/19 03:25:11;;;;;;;;;;;;;;;-2.29;100.00;102672.31;2092059;28;20055;-63
2022/01/19 03:26:12;;;;;;;;;;;;;;;-2.36;100.00;102666.09;2091964;28;19908;-64
2022/01/19 03:27:12;;;;;;;;;;;;;;;-2.33;100.00;102665.31;2091992;28;20385;-63
2022/01/19 03:28:12;;;;;;;;;;;;;;;-2.31;100.00;102667.94;2091885;28;19924;-63
2022/01/19 03:29:12;;;;;;;;;;;;;;;-2.29;100.00;102666.34;2091986;28;20293;-63
2022/01/19 03:30:14;;;;;;;;;;;;;;;-2.27;100.00;102664.72;2091981;28;20338;-63
2022/01/19 03:31:14;;;;;;;;;;;;;;;-2.27;100.00;102657.03;2091914;28;19909;-63
2022/01/19 03:32:14;;;;;;;;;;;;;;;-2.29;100.00;102656.97;2091870;28;19939;-63
2022/01/19 03:33:15;;;;;;;;;;;;;;;-2.33;100.00;102653.44;2091980;28;19962;-63
2022/01/19 03:34:16;;;;;;;;;;;;;;;-2.36;100.00;102645.63;2091935;28;19955;-63
2022/01/19 03:35:16;;;;;;;;;;;;;;;-2.34;100.00;102649.13;2091897;28;20017;-63
2022/01/19 03:36:20;;;;;;;;;;;;;;;-2.31;100.00;102647.50;2091848;28;20388;-63
2022/01/19 03:37:20;;;;;;;;;;;;;;;-2.30;100.00;102647.56;2091860;28;20285;-63
2022/01/19 03:38:20;;;;;;;;;;;;;;;-2.24;100.00;102649.50;2091751;28;19909;-63
2022/01/19 03:39:20;;;;;;;;;;;;;;;-2.14;100.00;102643.06;2091904;28;19908;-63
2022/01/19 03:40:22;;;;;;;;;;;;;;;-2.17;100.00;102646.38;2091862;28;19916;-62
2022/01/19 03:41:22;;;;;;;;;;;;;;;-2.18;100.00;102639.50;2092060;28;19908;-63
2022/01/19 03:42:23;;;;;;;;;;;;;;;-2.20;100.00;102644.56;2091890;28;19909;-63
2022/01/19 03:43:23;;;;;;;;;;;;;;;-2.21;100.00;102644.50;2091874;28;19960;-63
2022/01/19 03:44:23;;;;;;;;;;;;;;;-2.21;100.00;102641.94;2091876;28;19947;-63
2022/01/19 03:45:24;;;;;;;;;;;;;;;-2.17;100.00;102641.25;2091188;28;19913;-63
2022/01/19 03:46:32;;;;;;;;;;;;;;;-2.13;100.00;102637.13;2091262;28;19912;-63
2022/01/19 03:47:39;;;;;;;;;;;;;;;-2.17;100.00;102641.25;2091801;28;19915;-63
2022/01/19 03:50:09;;;;;;;;;;;;;;;-2.19;100.00;102630.06;2092157;28;19912;-63
2022/01/19 03:51:10;;;;;;;;;;;;;;;-2.17;100.00;102623.34;2091809;28;20393;-63
2022/01/19 03:52:10;;;;;;;;;;;;;;;-2.17;100.00;102619.91;2091737;28;19909;-63
2022/01/19 03:53:10;;;;;;;;;;;;;;;-2.15;100.00;102619.19;2091850;28;19913;-63
2022/01/19 03:54:10;;;;;;;;;;;;;;;-2.11;100.00;102617.59;2091847;28;19912;-63
2022/01/19 03:55:11;;;;;;;;;;;;;;;-2.09;100.00;102613.44;2091809;28;20388;-62
2022/01/19 03:56:11;;;;;;;;;;;;;;;-2.10;100.00;102614.22;2091715;28;19984;-63
2022/01/19 03:57:12;;;;;;;;;;;;;;;-2.08;100.00;102613.44;2091820;28;19940;-63
2022/01/19 03:58:13;;;;;;;;;;;;;;;-2.05;100.00;102602.50;2091186;28;19913;-63
2022/01/19 03:59:13;;;;;;;;;;;;;;;-1.94;100.00;102597.78;2091183;28;19970;-63
2022/01/19 04:00:14;;;;;;;;;;;;;;;-1.89;100.00;102591.13;2091682;28;19909;-63
2022/01/19 04:01:15;;;;;;;;;;;;;;;-1.87;100.00;102599.75;2091728;28;19913;-64
2022/01/19 04:02:15;;;;;;;;;;;;;;;-1.75;100.00;102593.34;2091697;28;19916;-63
2022/01/19 04:03:19;;;;;;;;;;;;;;;-1.64;100.00;102592.03;2091697;28;19908;-63
2022/01/19 04:05:25;;;;;;;;;;;;;;;-1.50;100.00;102589.13;2094479;28;19963;-63
2022/01/19 04:06:29;;;;;;;;;;;;;;;-1.52;100.00;102590.75;2090964;28;19908;-64
2022/01/19 04:07:29;;;;;;;;;;;;;;;-1.45;100.00;102583.34;2091220;28;19912;-63
2022/01/19 04:08:29;;;;;;;;;;;;;;;-1.50;100.00;102584.00;2091741;28;19913;-63
2022/01/19 04:09:30;;;;;;;;;;;;;;;-1.47;100.00;102589.25;2091770;28;19917;-63
2022/01/19 04:10:30;;;;;;;;;;;;;;;-1.46;100.00;102590.97;2091685;28;19909;-63
2022/01/19 04:11:30;;;;;;;;;;;;;;;-1.47;100.00;102590.09;2091708;28;20350;-63
2022/01/19 04:15:04;;;;;;;;;;;;;;;-0.99;100.00;102582.34;2091739;28;19954;-63
2022/01/19 04:16:04;;;;;;;;;;;;;;;-0.97;100.00;102586.69;2091644;28;19961;-64
2022/01/19 04:17:06;;;;;;;;;;;;;;;-1.00;100.00;102590.84;2091743;28;19908;-64
2022/01/19 04:18:06;;;;;;;;;;;;;;;-0.93;100.00;102583.41;2091732;28;20313;-64
2022/01/19 04:19:21;;;;;;;;;;;;;;;-0.85;100.00;102578.56;2091074;28;19912;-63
2022/01/19 04:20:25;;;;;;;;;;;;;;;-0.78;100.00;102577.91;2091213;28;19999;-63
2022/01/19 04:21:25;;;;;;;;;;;;;;;-0.81;100.00;102577.84;2091684;28;19909;-63
2022/01/19 04:22:25;;;;;;;;;;;;;;;-0.78;100.00;102580.47;2091624;28;19919;-63
2022/01/19 04:23:25;;;;;;;;;;;;;;;-0.74;100.00;102583.16;2091646;28;20381;-63
2022/01/19 04:24:26;;;;;;;;;;;;;;;-0.73;100.00;102574.63;2091543;28;20304;-63
2022/01/19 04:25:26;;;;;;;;;;;;;;;-0.70;100.00;102573.06;2091657;28;19915;-63
2022/01/19 04:26:26;;;;;;;;;;;;;;;-0.69;100.00;102573.91;2091646;28;19909;-63
2022/01/19 04:28:27;;;;;;;;;;;;;;;-0.64;100.00;102572.38;2094235;28;19954;-64
2022/01/19 04:29:27;;;;;;;;;;;;;;;-0.66;100.00;102576.56;2091622;28;19956;-63
2022/01/19 04:30:28;;;;;;;;;;;;;;;-0.65;100.00;102570.66;2091474;28;19909;-63
2022/01/19 04:31:29;;;;;;;;;;;;;;;-0.67;100.00;102580.84;2091600;28;20047;-63
2022/01/19 04:33:40;;;;;;;;;;;;;;;-0.68;100.00;102578.22;2094465;28;19909;-63
2022/01/19 04:34:42;;;;;;;;;;;;;;;-0.66;100.00;102581.69;2091523;28;19996;-63
2022/01/19 04:35:50;;;;;;;;;;;;;;;-0.71;100.00;102579.00;2090760;28;20082;-63
2022/01/19 04:49:04;;;;;;;;;;;;;;;-0.65;100.00;102586.88;2091480;28;19999;-64
2022/01/19 04:54:28;;;;;;;;;;;;;;;-0.67;100.00;102585.09;2091550;28;20358;-65
2022/01/19 05:03:34;;;;;;;;;;;;;;;-0.52;100.00;102575.31;2094127;28;19931;-64
2022/01/19 05:04:48;;;;;;;;;;;;;;;-0.49;100.00;102578.81;2091360;28;19920;-65
2022/01/19 05:05:59;;;;;;;;;;;;;;;-0.48;100.00;102572.88;2090611;28;19915;-64
2022/01/19 05:07:15;;;;;;;;;;;;;;;-0.48;100.00;102576.28;2090783;28;19923;-65
2022/01/19 05:09:57;;;;;;;;;;;;;;;-0.49;100.00;102573.66;2094180;28;19908;-65
2022/01/19 05:13:36;;;;;;;;;;;;;;;-0.53;100.00;102578.72;2091245;28;19909;-65
2022/01/19 05:14:36;;;;;;;;;;;;;;;-0.54;100.00;102566.69;2090393;28;19909;-65
2022/01/19 05:15:36;;;;;;;;;;;;;;;-0.55;100.00;102570.09;2090536;28;19996;-65
2022/01/19 05:16:37;;;;;;;;;;;;;;;-0.56;100.00;102563.22;2091099;28;19995;-65
2022/01/19 05:17:37;;;;;;;;;;;;;;;-0.57;100.00;102564.06;2091168;28;19909;-65
2022/01/19 05:18:37;;;;;;;;;;;;;;;-0.58;100.00;102564.00;2091174;28;19908;-65
2022/01/19 05:19:37;;;;;;;;;;;;;;;-0.59;100.00;102560.56;2091192;28;19909;-65
2022/01/19 05:20:37;;;;;;;;;;;;;;;-0.59;100.00;102568.25;2091128;28;19919;-65
2022/01/19 05:21:38;;;;;;;;;;;;;;;-0.61;100.00;102561.34;2091167;28;20053;-64
2022/01/19 05:22:38;;;;;;;;;;;;;;;-0.62;100.00;102573.28;2091150;28;19921;-64
2022/01/19 05:23:38;;;;;;;;;;;;;;;-0.63;100.00;102566.41;2091166;28;19916;-65
2022/01/19 05:24:39;;;;;;;;;;;;;;;-0.64;100.00;102567.25;2091056;28;20464;-66
2022/01/19 05:25:39;;;;;;;;;;;;;;;-0.65;100.00;102565.50;2091136;28;19971;-65
2022/01/19 05:26:39;;;;;;;;;;;;;;;-0.66;100.00;102572.31;2091077;28;19931;-64
2022/01/19 05:27:39;;;;;;;;;;;;;;;-0.66;100.00;102568.88;2090996;28;19917;-65
2022/01/19 05:28:40;;;;;;;;;;;;;;;-0.68;100.00;102575.66;2090194;28;19908;-65
2022/01/19 05:29:40;;;;;;;;;;;;;;;-0.67;100.00;102572.28;2090491;28;20285;-64
2022/01/19 05:30:40;;;;;;;;;;;;;;;-0.67;100.00;102577.41;2091101;28;19916;-65
2022/01/19 05:31:40;;;;;;;;;;;;;;;-0.68;100.00;102567.97;2090408;28;20366;-64
2022/01/19 05:32:41;;;;;;;;;;;;;;;-0.68;100.00;102573.09;2090513;28;20004;-64
2022/01/19 05:33:41;;;;;;;;;;;;;;;-0.69;100.00;102571.34;2090323;28;20007;-64
2022/01/19 05:34:41;;;;;;;;;;;;;;;-0.70;100.00;102575.63;2082134;28;19939;-65
2022/01/19 05:35:41;;;;;;;;;;;;;;;-0.68;100.00;102578.22;2082099;28;20390;-64
2022/01/19 05:36:41;;;;;;;;;;;;;;;-0.68;100.00;102573.94;2090427;28;19913;-64
2022/01/19 05:37:42;;;;;;;;;;;;;;;-0.68;100.00;102568.81;2090897;28;19909;-65
2022/01/19 05:38:42;;;;;;;;;;;;;;;-0.66;100.00;102567.19;2091069;28;20369;-64
2022/01/19 05:39:42;;;;;;;;;;;;;;;-0.62;100.00;102568.16;2090655;28;19912;-64
2022/01/19 05:40:42;;;;;;;;;;;;;;;-0.61;100.00;102564.78;2090851;28;20443;-64
2022/01/19 05:41:43;;;;;;;;;;;;;;;-0.58;100.00;102564.00;2091115;28;19912;-65
2022/01/19 05:42:43;;;;;;;;;;;;;;;-0.57;100.00;102561.50;2090978;28;19908;-65
2022/01/19 05:43:43;;;;;;;;;;;;;;;-0.55;100.00;102564.97;2090301;28;19908;-64
2022/01/19 05:44:44;;;;;;;;;;;;;;;-0.53;100.00;102568.47;2090410;28;19913;-65
2022/01/19 05:45:44;;;;;;;;;;;;;;;-0.50;100.00;102559.09;2091084;28;19916;-65
2022/01/19 05:46:44;;;;;;;;;;;;;;;-0.49;100.00;102556.59;2091097;28;19919;-65
2022/01/19 05:47:48;;;;;;;;;;;;;;;-0.47;100.00;102561.78;2091043;28;19909;-65
2022/01/19 05:48:48;;;;;;;;;;;;;;;-0.46;100.00;102558.38;2091015;28;19992;-66
2022/01/19 05:49:48;;;;;;;;;;;;;;;-0.45;100.00;102560.16;2090835;28;20320;-65
2022/01/19 05:50:49;;;;;;;;;;;;;;;-0.43;100.00;102561.06;2091014;28;20010;-65
2022/01/19 05:51:49;;;;;;;;;;;;;;;-0.42;100.00;102557.66;2090940;28;19913;-65
2022/01/19 05:52:50;;;;;;;;;;;;;;;-0.41;100.00;102561.97;2090877;28;19917;-66
2022/01/19 05:53:50;;;;;;;;;;;;;;;-0.40;100.00;102563.72;2090927;28;19958;-65
2022/01/19 05:54:50;;;;;;;;;;;;;;;-0.40;100.00;102553.44;2090953;28;19918;-65
2022/01/19 05:55:51;;;;;;;;;;;;;;;-0.37;100.00;102552.66;2090225;28;20429;-66
2022/01/19 05:56:52;;;;;;;;;;;;;;;-0.37;100.00;102553.56;2090262;28;19908;-66
2022/01/19 05:57:53;;;;;;;;;;;;;;;-0.35;100.00;102551.88;2090870;28;19916;-66
2022/01/19 05:58:53;;;;;;;;;;;;;;;-0.34;100.00;102545.94;2090268;28;19909;-65
2022/01/19 05:59:53;;;;;;;;;;;;;;;-0.32;100.00;102546.84;2090267;28;20277;-66
2022/01/19 06:00:53;;;;;;;;;;;;;;;-0.31;100.00;102543.47;2090862;28;19919;-65
2022/01/19 06:01:55;;;;;;;;;;;;;;;-0.29;100.00;102546.97;2090045;28;19956;-66
2022/01/19 06:02:55;;;;;;;;;;;;;;;-0.29;100.00;102546.97;2082002;28;19944;-65
2022/01/19 06:03:55;;;;;;;;;;;;;;;-0.28;100.00;102542.69;2090265;28;19999;-65
2022/01/19 06:04:56;;;;;;;;;;;;;;;-0.25;100.00;102547.06;2090126;28;19988;-65
2022/01/19 06:05:56;;;;;;;;;;;;;;;-0.24;100.00;102543.66;2090247;28;19909;-65
2022/01/19 06:06:57;;;;;;;;;;;;;;;-0.24;100.00;102544.50;2090776;28;19912;-66
2022/01/19 06:08:12;;;;;;;;;;;;;;;-0.21;100.00;102546.31;2090758;28;19912;-65
2022/01/19 06:09:32;;;;;;;;;;;;;;;-0.20;100.00;102548.91;2090842;28;19909;-65
2022/01/19 06:10:44;;;;;;;;;;;;;;;-0.20;100.00;102541.22;2090595;28;19909;-65
2022/01/19 06:11:44;;;;;;;;;;;;;;;-0.19;100.00;102550.69;2090707;28;20279;-64
2022/01/19 06:12:45;;;;;;;;;;;;;;;-0.17;100.00;102540.47;2090719;28;19970;-65
2022/01/19 06:13:45;;;;;;;;;;;;;;;-0.17;100.00;102533.59;2089892;28;20362;-64
2022/01/19 06:14:45;;;;;;;;;;;;;;;-0.16;100.00;102542.19;2090265;28;19947;-65
2022/01/19 06:15:46;;;;;;;;;;;;;;;-0.16;100.00;102537.94;2089725;28;20366;-64
2022/01/19 06:16:46;;;;;;;;;;;;;;;-0.14;100.00;102530.25;2089935;28;19946;-64
2022/01/19 06:17:47;;;;;;;;;;;;;;;-0.13;100.00;102534.59;2090600;28;19913;-65
2022/01/19 06:18:47;;;;;;;;;;;;;;;-0.14;100.00;102536.28;2090495;28;20300;-64
2022/01/19 06:19:48;;;;;;;;;;;;;;;-0.12;100.00;102533.75;2090430;28;19909;-64
2022/01/19 06:20:48;;;;;;;;;;;;;;;-0.12;100.00;102531.19;2089913;28;19913;-64
2022/01/19 06:21:48;;;;;;;;;;;;;;;-0.10;100.00;102529.53;2090070;28;19912;-65
2022/01/19 06:22:48;;;;;;;;;;;;;;;-0.09;100.00;102522.69;2090628;28;19920;-65
2022/01/19 06:23:49;;;;;;;;;;;;;;;-0.08;100.00;102534.69;2090667;28;20400;-65
2022/01/19 06:24:49;;;;;;;;;;;;;;;-0.07;100.00;102527.06;2090974;28;20402;-64
2022/01/19 06:25:49;;;;;;;;;;;;;;;-0.06;100.00;102528.81;2090519;28;19909;-64
2022/01/19 06:26:49;;;;;;;;;;;;;;;-0.06;100.00;102518.53;2090791;28;20377;-64
2022/01/19 06:27:49;;;;;;;;;;;;;;;-0.05;100.00;102521.97;2090585;28;19920;-65
2022/01/19 06:28:50;;;;;;;;;;;;;;;-0.03;100.00;102523.75;2090636;28;19908;-65
2022/01/19 06:29:51;;;;;;;;;;;;;;;-0.03;100.00;102521.19;2090585;28;19978;-64
2022/01/19 06:30:51;;;;;;;;;;;;;;;-0.02;100.00;102515.25;2090623;28;19909;-64
2022/01/19 06:31:51;;;;;;;;;;;;;;;-0.01;100.00;102516.97;2089926;28;19909;-65
2022/01/19 06:32:52;;;;;;;;;;;;;;;-0.02;100.00;102512.69;2090017;28;19931;-66
2022/01/19 06:33:52;;;;;;;;;;;;;;;0.00;100.00;102515.28;2090556;28;19909;-65